Terminal Aerodrome Forecast
Issued by NWS

Home | Current Version | Previous Version | Text Only | Print | Product List | Glossary On
Versions: 1 2 3 4 5 6 7 8 9 10 11 12 13 14 15 16 17 18 19 20 21 22 23 24 25 26 27 28 29 30 31 32 33 34 35 36 37 38 39 40
000
FTUS41 KOKX 160700 AAB
TAFHPN
TAF AMD
KHPN 160706Z 1607/1706 32015KT P6SM SCT050
     FM160900 32017G27KT P6SM SCT150
     FM161500 32016G26KT P6SM FEW040
     FM162100 36012KT P6SM SKC
     FM170200 02008KT P6SM SKC
      AMD NOT SKED=

USA.gov is the U.S. government's official web portal to all federal, state and local government web resources and services.